Time;durP1;ratioP1;P1;durP2;ratioP2;P2;SDS_P1;SDS_P2;PMS_P1;PMS_P2;Temp;Humidity;BMP_temperature;BMP_pressure;BME280_temperature;BME280_humidity;BME280_pressure;Samples;Min_cycle;Max_cycle;Signal;HPM_P1;HPM_P2
2023/08/08 00:00:05;;;;;;;0.90;0.80;;;;;;;17.67;79.30;93302.38;513122;28;1826;-43
2023/08/08 00:00:20;;;;;;;0.80;0.80;;;;;;;17.67;79.26;93305.88;512679;28;882;-43
2023/08/08 00:00:35;;;;;;;0.90;0.80;;;;;;;17.69;79.32;93310.88;513071;28;1328;-43
2023/08/08 00:00:51;;;;;;;1.10;0.80;;;;;;;17.68;79.34;93303.81;513659;28;915;-43
2023/08/08 00:01:06;;;;;;;0.93;0.80;;;;;;;17.68;79.15;93307.34;513387;28;872;-43
2023/08/08 00:01:21;;;;;;;1.00;0.80;;;;;;;17.60;78.99;93290.06;511542;28;1536;-43
2023/08/08 00:01:37;;;;;;;1.10;0.90;;;;;;;17.69;79.01;93305.28;513053;28;797;-43
2023/08/08 00:01:52;;;;;;;1.10;1.00;;;;;;;17.69;78.95;93302.50;513628;28;855;-43
2023/08/08 00:02:08;;;;;;;1.00;0.90;;;;;;;17.70;78.96;93313.06;513622;28;856;-44
2023/08/08 00:02:23;;;;;;;0.90;0.90;;;;;;;17.70;78.88;93310.25;511739;28;858;-43
2023/08/08 00:02:39;;;;;;;0.90;0.90;;;;;;;17.70;78.88;93310.25;513220;28;817;-43
2023/08/08 00:02:54;;;;;;;0.90;0.90;;;;;;;17.55;78.87;93291.13;512274;28;1830;-43
2023/08/08 00:03:10;;;;;;;1.00;0.70;;;;;;;17.71;79.01;93314.53;513462;28;793;-44
2023/08/08 00:03:25;;;;;;;1.00;0.80;;;;;;;17.72;79.11;93307.59;511925;28;1111;-43
2023/08/08 00:03:40;;;;;;;0.97;0.80;;;;;;;17.72;78.95;93304.06;513543;28;1558;-43
2023/08/08 00:03:56;;;;;;;1.10;0.80;;;;;;;17.72;78.90;93310.41;513654;28;913;-43
2023/08/08 00:04:11;;;;;;;0.82;0.80;;;;;;;17.72;79.14;93313.19;513647;28;797;-43
2023/08/08 00:04:27;;;;;;;1.00;0.90;;;;;;;17.73;79.22;93313.91;513514;28;878;-43
2023/08/08 00:04:42;;;;;;;1.00;0.90;;;;;;;17.73;79.42;93311.88;513619;28;831;-43
2023/08/08 00:04:57;;;;;;;0.82;0.70;;;;;;;17.73;79.26;93313.91;513529;28;1059;-43
2023/08/08 00:05:13;;;;;;;1.20;0.90;;;;;;;17.73;79.05;93320.25;513473;28;1984;-44
2023/08/08 00:05:28;;;;;;;0.80;0.80;;;;;;;17.73;78.72;93314.66;513022;28;1762;-43
2023/08/08 00:05:43;;;;;;;0.80;0.80;;;;;;;17.74;78.53;93312.56;513665;28;820;-43
2023/08/08 00:05:59;;;;;;;1.00;0.90;;;;;;;17.75;78.39;93316.84;513085;28;1067;-43
2023/08/08 00:06:14;;;;;;;1.00;0.90;;;;;;;17.73;78.39;93316.72;513624;28;1173;-44
2023/08/08 00:06:29;;;;;;;0.98;0.80;;;;;;;17.73;78.22;93311.88;512916;28;1032;-43
2023/08/08 00:06:45;;;;;;;0.90;0.80;;;;;;;17.75;78.51;93314.78;513704;28;816;-43
2023/08/08 00:07:00;;;;;;;1.27;0.97;;;;;;;17.74;78.29;93310.53;513588;28;857;-43
2023/08/08 00:07:16;;;;;;;1.23;0.82;;;;;;;17.74;78.19;93313.31;513752;28;777;-43
2023/08/08 00:07:31;;;;;;;0.80;0.80;;;;;;;17.74;78.26;93313.31;513665;28;1061;-43
2023/08/08 00:07:46;;;;;;;0.90;0.85;;;;;;;17.74;77.92;93312.56;513730;28;880;-43
2023/08/08 00:08:02;;;;;;;0.67;0.67;;;;;;;17.73;77.87;93306.28;513529;28;1146;-43
2023/08/08 00:08:17;;;;;;;0.70;0.70;;;;;;;17.75;77.97;93316.84;513732;28;1026;-44
2023/08/08 00:08:33;;;;;;;0.82;0.80;;;;;;;17.73;77.75;93311.88;513682;28;797;-43
2023/08/08 00:08:48;;;;;;;0.77;0.77;;;;;;;17.74;77.77;93316.09;513605;28;962;-43
2023/08/08 00:09:04;;;;;;;0.70;0.70;;;;;;;17.67;77.69;93305.16;513633;28;850;-43
2023/08/08 00:09:19;;;;;;;0.70;0.70;;;;;;;17.68;77.68;93301.75;513731;28;816;-43
2023/08/08 00:09:35;;;;;;;0.60;0.60;;;;;;;17.73;77.61;93317.44;513462;28;1139;-43
2023/08/08 00:09:50;;;;;;;0.70;0.70;;;;;;;17.73;77.97;93311.88;513641;28;781;-43
2023/08/08 00:10:06;;;;;;;1.70;0.73;;;;;;;17.73;77.64;93302.75;512042;28;1845;-43
2023/08/08 00:10:21;;;;;;;1.55;0.68;;;;;;;17.73;77.64;93311.88;513605;28;792;-43
2023/08/08 00:10:37;;;;;;;0.80;0.70;;;;;;;17.73;77.99;93317.44;513498;28;907;-43
2023/08/08 00:10:52;;;;;;;1.30;0.80;;;;;;;17.73;77.95;93313.91;513695;28;835;-43
2023/08/08 00:11:08;;;;;;;1.67;0.90;;;;;;;17.73;78.44;93311.13;513497;28;867;-43
2023/08/08 00:11:23;;;;;;;1.30;0.90;;;;;;;17.73;78.64;93311.13;513387;28;876;-43
2023/08/08 00:11:38;;;;;;;1.03;0.83;;;;;;;17.74;78.73;93313.31;514753;28;1100;-43
2023/08/08 00:11:54;;;;;;;0.90;0.80;;;;;;;17.74;78.69;93318.91;515476;28;923;-43
2023/08/08 00:12:09;;;;;;;0.88;0.88;;;;;;;17.76;78.50;93310.66;513982;28;890;-43
2023/08/08 00:12:24;;;;;;;0.90;0.90;;;;;;;17.75;77.97;93314.78;513422;28;872;-43
2023/08/08 00:12:40;;;;;;;0.80;0.73;;;;;;;17.76;77.83;93312.75;512912;28;1592;-43
2023/08/08 00:12:55;;;;;;;1.00;0.73;;;;;;;17.75;77.87;93314.78;512529;28;895;-43
2023/08/08 00:13:10;;;;;;;1.00;0.77;;;;;;;17.71;77.89;93308.94;512384;28;841;-43
2023/08/08 00:13:26;;;;;;;0.70;0.70;;;;;;;17.75;78.26;93314.06;511762;28;852;-43
2023/08/08 00:13:41;;;;;;;0.60;0.60;;;;;;;17.76;78.19;93318.31;513360;28;872;-43
2023/08/08 00:13:57;;;;;;;0.97;0.60;;;;;;;17.75;78.16;93314.78;513541;28;1032;-43
2023/08/08 00:14:12;;;;;;;1.10;0.70;;;;;;;17.77;78.35;93312.13;512701;28;1359;-44
2023/08/08 00:14:28;;;;;;;0.87;0.77;;;;;;;17.79;78.32;93317.09;513647;28;844;-43
2023/08/08 00:14:43;;;;;;;1.10;0.80;;;;;;;17.78;78.45;93319.16;513476;28;836;-43
2023/08/08 00:14:58;;;;;;;0.90;0.80;;;;;;;17.80;78.61;93322.09;513783;28;841;-43
2023/08/08 00:15:14;;;;;;;0.80;0.80;;;;;;;17.79;78.46;93320.63;513386;28;1632;-43
2023/08/08 00:15:29;;;;;;;0.70;0.70;;;;;;;17.81;78.45;93311.66;513502;28;1111;-43
2023/08/08 00:15:45;;;;;;;0.77;0.77;;;;;;;17.80;78.15;93316.50;513876;28;783;-43
2023/08/08 00:16:00;;;;;;;0.80;0.80;;;;;;;17.82;78.25;93315.91;513907;28;912;-43
2023/08/08 00:16:16;;;;;;;0.80;0.80;;;;;;;17.81;78.20;93320.03;513784;28;790;-43
2023/08/08 00:16:31;;;;;;;0.73;0.70;;;;;;;17.82;77.86;93313.84;512540;28;836;-44
2023/08/08 00:16:46;;;;;;;0.80;0.80;;;;;;;17.82;77.90;93313.13;513840;28;903;-43
2023/08/08 00:17:02;;;;;;;0.82;0.82;;;;;;;17.83;77.72;93308.97;513872;28;1143;-44
2023/08/08 00:17:17;;;;;;;0.80;0.80;;;;;;;17.83;77.37;93317.38;513918;28;809;-44
2023/08/08 00:17:32;;;;;;;0.80;0.80;;;;;;;17.82;77.34;93313.13;513828;28;807;-43
2023/08/08 00:17:48;;;;;;;0.70;0.70;;;;;;;17.81;77.17;93306.81;513794;28;2527;-43
2023/08/08 00:18:03;;;;;;;0.70;0.70;;;;;;;17.82;76.81;93315.91;513880;28;1598;-44
2023/08/08 00:18:19;;;;;;;0.70;0.70;;;;;;;17.80;76.72;93304.63;513880;28;872;-43
2023/08/08 00:18:34;;;;;;;0.67;0.67;;;;;;;17.79;76.42;93303.88;513688;28;1107;-43
2023/08/08 00:18:53;;;;;;;0.60;0.60;;;;;;;17.79;76.35;93303.88;513705;28;1715;-43
2023/08/08 00:19:08;;;;;;;0.82;0.82;;;;;;;17.78;76.37;93310.78;512787;28;999;-44
2023/08/08 00:19:23;;;;;;;0.80;0.80;;;;;;;17.77;76.41;93300.97;512465;28;845;-44
2023/08/08 00:19:39;;;;;;;0.70;0.70;;;;;;;17.77;76.26;93312.13;513803;28;919;-44
2023/08/08 00:19:55;;;;;;;0.80;0.80;;;;;;;17.76;76.69;93302.28;513858;28;889;-43
2023/08/08 00:20:10;;;;;;;0.75;0.75;;;;;;;17.74;76.58;93302.16;513775;28;1167;-43
2023/08/08 00:20:26;;;;;;;0.80;0.70;;;;;;;17.77;76.51;93308.59;515751;28;860;-43
2023/08/08 00:20:41;;;;;;;0.93;0.70;;;;;;;17.76;76.54;93301.56;515300;28;938;-43
2023/08/08 00:20:56;;;;;;;0.80;0.80;;;;;;;17.75;76.46;93300.81;515747;28;823;-44
2023/08/08 00:21:12;;;;;;;0.80;0.80;;;;;;;17.75;76.49;93303.63;515678;28;962;-44
2023/08/08 00:21:28;;;;;;;0.93;0.82;;;;;;;17.75;76.79;93302.88;515618;28;1130;-44
2023/08/08 00:21:43;;;;;;;0.87;0.83;;;;;;;17.74;76.83;93310.53;515573;28;874;-43
2023/08/08 00:21:58;;;;;;;0.70;0.70;;;;;;;17.72;76.95;93298.47;515811;28;828;-44
2023/08/08 00:22:14;;;;;;;0.80;0.70;;;;;;;17.75;76.96;93302.88;515462;28;955;-44
2023/08/08 00:22:29;;;;;;;0.90;0.90;;;;;;;17.74;77.13;93302.16;513902;28;779;-44
2023/08/08 00:22:44;;;;;;;0.80;0.80;;;;;;;17.73;77.49;93300.69;513934;28;781;-44
2023/08/08 00:23:00;;;;;;;0.70;0.70;;;;;;;17.72;77.45;93296.44;513874;28;1162;-44
2023/08/08 00:23:15;;;;;;;0.80;0.80;;;;;;;17.71;77.29;93297.78;513844;28;876;-43
2023/08/08 00:23:30;;;;;;;0.80;0.80;;;;;;;17.72;77.21;93295.69;513136;28;1723;-43
2023/08/08 00:23:46;;;;;;;0.70;0.70;;;;;;;17.71;76.81;93297.78;513824;28;1150;-43
2023/08/08 00:24:01;;;;;;;0.73;0.73;;;;;;;17.62;76.54;93283.88;512617;28;847;-43
2023/08/08 00:24:17;;;;;;;0.95;0.90;;;;;;;17.70;76.43;93292.78;511943;28;819;-43
2023/08/08 00:24:32;;;;;;;1.00;0.90;;;;;;;17.70;76.62;93289.97;512261;28;2314;-43
2023/08/08 00:24:47;;;;;;;1.20;0.80;;;;;;;17.65;76.54;93285.47;513778;28;944;-44
2023/08/08 00:25:03;;;;;;;0.98;0.68;;;;;;;17.69;76.55;93294.13;513738;28;873;-43
2023/08/08 00:25:19;;;;;;;0.73;0.70;;;;;;;17.67;76.82;93297.50;513724;28;1914;-43
2023/08/08 00:25:35;;;;;;;1.30;0.80;;;;;;;17.70;77.09;93289.97;513687;28;777;-44
2023/08/08 00:25:51;;;;;;;1.10;0.80;;;;;;;17.70;77.11;93287.19;513737;28;903;-43
2023/08/08 00:26:06;;;;;;;0.80;0.80;;;;;;;17.67;77.20;93285.63;513027;28;1596;-43
2023/08/08 00:26:21;;;;;;;0.90;0.90;;;;;;;17.69;77.14;93291.31;512178;28;765;-43
2023/08/08 00:26:37;;;;;;;0.80;0.80;;;;;;;17.69;77.44;93292.06;513255;28;874;-44
2023/08/08 00:26:52;;;;;;;0.80;0.80;;;;;;;17.69;77.30;93288.53;513806;28;833;-43
2023/08/08 00:27:08;;;;;;;0.87;0.87;;;;;;;17.69;77.35;93297.66;513441;28;1012;-43
2023/08/08 00:27:23;;;;;;;0.80;0.80;;;;;;;17.59;77.34;93283.00;511940;28;853;-44
2023/08/08 00:27:42;;;;;;;0.97;0.77;;;;;;;17.68;77.38;93293.38;513485;28;1147;-45
2023/08/08 00:27:57;;;;;;;0.90;0.70;;;;;;;17.68;77.23;93293.38;513940;28;903;-43
2023/08/08 00:28:12;;;;;;;0.80;0.80;;;;;;;17.68;77.16;93296.16;513360;28;860;-44
2023/08/08 00:28:28;;;;;;;0.80;0.80;;;;;;;17.69;77.12;93299.69;512144;28;1129;-45
2023/08/08 00:28:43;;;;;;;0.70;0.70;;;;;;;17.67;77.02;93291.91;513821;28;892;-44
2023/08/08 00:28:58;;;;;;;0.73;0.70;;;;;;;17.68;77.19;93292.66;513879;28;1163;-44
2023/08/08 00:29:14;;;;;;;2.40;0.80;;;;;;;17.68;77.26;93295.44;513874;28;865;-44
2023/08/08 00:29:29;;;;;;;2.35;0.90;;;;;;;17.68;77.50;93296.16;513814;28;880;-44
2023/08/08 00:29:45;;;;;;;1.00;0.90;;;;;;;17.68;77.40;93298.97;513819;28;864;-44
2023/08/08 00:30:01;;;;;;;0.90;0.80;;;;;;;17.69;77.93;93294.13;513942;28;898;-44
2023/08/08 00:30:16;;;;;;;0.82;0.60;;;;;;;17.68;78.08;93293.38;513209;28;1750;-44
2023/08/08 00:30:32;;;;;;;0.63;0.63;;;;;;;17.69;77.89;93300.44;512442;28;1024;-45
2023/08/08 00:30:47;;;;;;;0.80;0.80;;;;;;;17.71;77.70;93297.03;513835;28;1180;-44
2023/08/08 00:31:02;;;;;;;1.10;0.90;;;;;;;17.70;77.76;93293.50;513846;28;840;-45
2023/08/08 00:31:19;;;;;;;0.90;0.80;;;;;;;17.70;77.84;93298.34;513340;28;870;-44
2023/08/08 00:31:35;;;;;;;0.80;0.80;;;;;;;17.71;77.49;93299.84;513036;28;835;-44
2023/08/08 00:31:50;;;;;;;0.87;0.80;;;;;;;17.71;77.32;93297.03;513833;28;1217;-45
2023/08/08 00:32:06;;;;;;;1.02;0.85;;;;;;;17.65;77.23;93294.56;513842;28;1174;-44
2023/08/08 00:32:21;;;;;;;0.93;0.87;;;;;;;17.72;77.26;93293.63;513736;28;862;-45
2023/08/08 00:32:36;;;;;;;0.80;0.80;;;;;;;17.71;77.36;93297.78;513882;28;848;-44
2023/08/08 00:32:52;;;;;;;0.70;0.70;;;;;;;17.72;78.16;93301.28;513563;28;1774;-44
2023/08/08 00:33:07;;;;;;;0.77;0.77;;;;;;;17.72;78.32;93296.44;512408;28;798;-44
2023/08/08 00:33:22;;;;;;;0.82;0.82;;;;;;;17.71;78.34;93300.56;513872;28;785;-43
2023/08/08 00:33:38;;;;;;;0.80;0.80;;;;;;;17.73;78.20;93291.59;513302;28;988;-43
2023/08/08 00:33:53;;;;;;;0.60;0.60;;;;;;;17.72;77.98;93299.22;513778;28;893;-43
2023/08/08 00:34:08;;;;;;;0.82;0.70;;;;;;;17.73;78.16;93300.69;513900;28;824;-44
2023/08/08 00:34:24;;;;;;;1.63;0.80;;;;;;;17.73;78.11;93292.31;513850;28;836;-44
2023/08/08 00:34:39;;;;;;;2.07;0.80;;;;;;;17.74;78.13;93290.97;513771;28;831;-43
2023/08/08 00:34:55;;;;;;;1.30;0.70;;;;;;;17.74;77.45;93299.34;513846;28;868;-44
2023/08/08 00:35:10;;;;;;;0.80;0.80;;;;;;;17.73;76.99;93292.31;513782;28;1292;-44
2023/08/08 00:35:25;;;;;;;0.90;0.90;;;;;;;17.74;76.80;93290.97;513846;28;832;-44
2023/08/08 00:35:41;;;;;;;1.40;0.90;;;;;;;17.74;76.40;93290.25;513191;28;1544;-44
2023/08/08 00:35:56;;;;;;;1.17;0.83;;;;;;;17.73;76.17;93297.16;512534;28;779;-44
2023/08/08 00:36:11;;;;;;;0.87;0.70;;;;;;;17.72;76.27;93288.06;513083;28;822;-43
2023/08/08 00:36:27;;;;;;;0.83;0.70;;;;;;;17.73;76.47;93286.75;513753;28;1130;-45
2023/08/08 00:36:42;;;;;;;0.80;0.80;;;;;;;17.73;76.67;93283.94;513734;28;1517;-43
2023/08/08 00:36:57;;;;;;;0.70;0.70;;;;;;;17.73;76.72;93289.53;513892;28;840;-44
2023/08/08 00:37:13;;;;;;;0.60;0.60;;;;;;;17.73;76.53;93288.78;513921;28;839;-43
2023/08/08 00:37:28;;;;;;;0.60;0.60;;;;;;;17.73;76.29;93289.53;513858;28;876;-45
2023/08/08 00:37:43;;;;;;;0.70;0.70;;;;;;;17.72;76.02;93276.88;512584;28;809;-44
2023/08/08 00:37:59;;;;;;;0.60;0.60;;;;;;;17.72;75.89;93288.06;513787;28;1139;-43
2023/08/08 00:38:16;;;;;;;0.70;0.70;;;;;;;17.71;75.59;93283.81;513834;28;919;-44
2023/08/08 00:38:31;;;;;;;0.80;0.80;;;;;;;17.70;75.59;93290.72;513800;28;887;-44
2023/08/08 00:38:48;;;;;;;0.70;0.70;;;;;;;17.71;75.75;93286.59;513921;28;758;-43
2023/08/08 00:39:03;;;;;;;0.50;0.50;;;;;;;17.71;76.24;93283.06;513800;28;868;-43
2023/08/08 00:39:19;;;;;;;0.50;0.50;;;;;;;17.70;76.58;93282.34;513908;28;773;-45
2023/08/08 00:39:34;;;;;;;0.60;0.60;;;;;;;17.72;76.82;93281.72;513665;28;1107;-44
2023/08/08 00:39:49;;;;;;;0.70;0.70;;;;;;;17.72;76.83;93276.16;513872;28;880;-45
2023/08/08 00:40:06;;;;;;;0.87;0.80;;;;;;;17.71;76.80;93281.03;513812;28;1202;-44
2023/08/08 00:40:21;;;;;;;1.00;0.85;;;;;;;17.72;77.35;93279.69;512771;28;1698;-44
2023/08/08 00:40:36;;;;;;;1.02;0.90;;;;;;;17.72;77.51;93287.31;513162;28;892;-44
2023/08/08 00:40:52;;;;;;;0.80;0.70;;;;;;;17.72;77.60;93278.94;513767;28;935;-44
2023/08/08 00:41:07;;;;;;;0.73;0.60;;;;;;;17.72;78.00;93276.16;513815;28;1139;-43
2023/08/08 00:41:22;;;;;;;0.70;0.63;;;;;;;17.72;77.96;93276.88;513566;28;1014;-44
2023/08/08 00:41:38;;;;;;;0.70;0.70;;;;;;;17.72;78.25;93282.47;513633;28;1553;-44
2023/08/08 00:41:53;;;;;;;0.80;0.70;;;;;;;17.72;77.86;93276.88;513654;28;848;-44
2023/08/08 00:42:08;;;;;;;0.93;0.80;;;;;;;17.72;77.83;93273.34;513707;28;932;-44
2023/08/08 00:42:24;;;;;;;0.77;0.77;;;;;;;17.72;77.72;93274.09;513618;28;870;-44
2023/08/08 00:42:39;;;;;;;0.70;0.70;;;;;;;17.71;77.66;93274.69;513621;28;1059;-43
2023/08/08 00:42:54;;;;;;;1.20;0.70;;;;;;;17.71;77.93;93278.22;513108;28;1743;-44
2023/08/08 00:43:10;;;;;;;1.17;0.80;;;;;;;17.67;77.95;93261.19;513202;28;896;-44
2023/08/08 00:43:25;;;;;;;0.80;0.80;;;;;;;17.73;77.99;93283.22;513403;28;855;-44
2023/08/08 00:43:41;;;;;;;0.80;0.80;;;;;;;17.72;78.14;93270.56;513814;28;812;-43
2023/08/08 00:43:56;;;;;;;0.75;0.75;;;;;;;17.72;77.89;93276.88;513844;28;793;-44
2023/08/08 00:44:11;;;;;;;0.80;0.80;;;;;;;17.72;77.51;93276.88;513829;28;858;-44
2023/08/08 00:44:27;;;;;;;1.02;0.82;;;;;;;17.72;77.50;93276.16;513826;28;1572;-44
2023/08/08 00:44:42;;;;;;;1.03;0.80;;;;;;;17.72;77.27;93267.78;513857;28;769;-43
2023/08/08 00:45:03;;;;;;;0.80;0.80;;;;;;;17.72;77.06;93274.09;513959;28;797;-44
2023/08/08 00:45:18;;;;;;;0.80;0.80;;;;;;;17.72;77.18;93276.88;513853;28;1974;-44
2023/08/08 00:45:34;;;;;;;0.80;0.80;;;;;;;17.73;77.26;93274.84;513213;28;1604;-44
2023/08/08 00:45:50;;;;;;;0.70;0.70;;;;;;;17.73;77.20;93278.34;513697;28;833;-43
2023/08/08 00:46:05;;;;;;;0.80;0.70;;;;;;;17.73;77.24;93275.56;513616;28;1628;-43
2023/08/08 00:46:22;;;;;;;0.63;0.60;;;;;;;17.73;77.45;93281.16;513743;28;788;-43
2023/08/08 00:46:37;;;;;;;0.65;0.65;;;;;;;17.68;77.23;93273.84;513590;28;838;-43
2023/08/08 00:46:52;;;;;;;0.90;0.90;;;;;;;17.74;77.60;93279.06;513706;28;822;-44
2023/08/08 00:47:08;;;;;;;0.90;0.90;;;;;;;17.75;77.41;93280.53;513607;28;1135;-43
2023/08/08 00:47:24;;;;;;;0.70;0.70;;;;;;;17.75;77.44;93283.34;513700;28;894;-43
2023/08/08 00:47:39;;;;;;;0.70;0.70;;;;;;;17.75;77.67;93275.69;513606;28;1382;-43
2023/08/08 00:47:55;;;;;;;0.90;0.80;;;;;;;17.75;77.66;93281.28;513713;28;840;-43
2023/08/08 00:48:11;;;;;;;0.83;0.80;;;;;;;17.75;77.99;93286.88;513750;28;923;-43
2023/08/08 00:48:26;;;;;;;0.80;0.80;;;;;;;17.75;77.82;93286.13;513856;28;825;-43
2023/08/08 00:48:41;;;;;;;0.80;0.80;;;;;;;17.75;77.17;93286.13;513659;28;1151;-43
2023/08/08 00:48:57;;;;;;;1.00;0.80;;;;;;;17.74;77.22;93285.38;513877;28;911;-43
2023/08/08 00:49:12;;;;;;;1.00;0.80;;;;;;;17.75;77.13;93286.88;513723;28;853;-43
2023/08/08 00:49:27;;;;;;;0.70;0.70;;;;;;;17.76;76.90;93288.31;513621;28;1186;-43
2023/08/08 00:49:46;;;;;;;0.70;0.70;;;;;;;17.76;77.08;93293.91;512739;28;1801;-43
2023/08/08 00:50:02;;;;;;;0.80;0.80;;;;;;;17.70;77.03;93285.13;513587;28;1123;-43
2023/08/08 00:50:18;;;;;;;0.85;0.85;;;;;;;17.58;76.88;93262.03;513651;28;1046;-43
2023/08/08 00:50:34;;;;;;;1.50;0.80;;;;;;;17.78;77.01;93296.09;512060;28;809;-43
2023/08/08 00:50:50;;;;;;;1.30;0.60;;;;;;;17.75;77.15;93298.03;511717;29;885;-43
2023/08/08 00:51:06;;;;;;;0.70;0.70;;;;;;;17.79;77.29;93303.13;511767;28;848;-43
2023/08/08 00:51:21;;;;;;;0.80;0.80;;;;;;;17.79;77.36;93303.88;511707;29;1649;-45
2023/08/08 00:51:37;;;;;;;2.03;0.63;;;;;;;17.79;77.22;93300.34;511539;29;1040;-44
2023/08/08 00:51:53;;;;;;;1.95;0.60;;;;;;;17.79;76.98;93303.13;512841;28;806;-43
2023/08/08 00:52:08;;;;;;;0.70;0.70;;;;;;;17.76;76.95;93298.78;513666;28;809;-43
2023/08/08 00:52:25;;;;;;;0.80;0.80;;;;;;;17.78;76.93;93301.69;513634;28;841;-43
2023/08/08 00:52:42;;;;;;;0.70;0.70;;;;;;;17.79;77.12;93303.13;511582;28;908;-43
2023/08/08 00:52:57;;;;;;;0.70;0.70;;;;;;;17.78;76.91;93302.41;511694;29;916;-43
2023/08/08 00:53:12;;;;;;;0.70;0.70;;;;;;;17.75;77.11;93306.41;511638;29;1551;-43
2023/08/08 00:53:31;;;;;;;0.70;0.70;;;;;;;17.78;76.91;93313.56;510108;29;1839;-43
2023/08/08 00:53:47;;;;;;;0.70;0.70;;;;;;;17.77;77.02;93312.13;510984;29;929;-43
2023/08/08 00:54:03;;;;;;;0.77;0.70;;;;;;;17.78;77.03;93307.28;511696;28;884;-43
2023/08/08 00:54:21;;;;;;;0.80;0.68;;;;;;;17.77;77.09;93303.00;509675;29;956;-43
2023/08/08 00:54:36;;;;;;;1.02;0.80;;;;;;;17.77;77.22;93309.34;511051;29;942;-44
2023/08/08 00:54:52;;;;;;;1.00;0.83;;;;;;;17.77;77.11;93311.38;511739;28;871;-43
2023/08/08 00:55:08;;;;;;;0.80;0.60;;;;;;;17.76;76.78;93309.94;511645;28;1167;-43
2023/08/08 00:55:23;;;;;;;0.80;0.60;;;;;;;17.76;76.73;93318.31;512945;28;864;-44
2023/08/08 00:55:39;;;;;;;0.77;0.77;;;;;;;17.75;76.84;93319.63;513632;28;801;-43
2023/08/08 00:55:54;;;;;;;1.08;1.00;;;;;;;17.75;76.82;93319.63;513673;28;859;-43
2023/08/08 00:56:12;;;;;;;1.00;0.90;;;;;;;17.75;76.93;93316.84;512557;28;1476;-43
2023/08/08 00:56:28;;;;;;;0.60;0.60;;;;;;;17.74;77.08;93313.31;513383;28;825;-44
2023/08/08 00:56:43;;;;;;;0.60;0.60;;;;;;;17.74;77.34;93323.75;513831;28;836;-43
2023/08/08 00:56:59;;;;;;;0.70;0.70;;;;;;;17.73;76.98;93325.81;513850;28;1216;-43
2023/08/08 00:57:14;;;;;;;0.70;0.70;;;;;;;17.73;77.12;93314.66;515655;28;1007;-43
2023/08/08 00:57:30;;;;;;;0.70;0.70;;;;;;;17.74;77.15;93326.53;515674;28;848;-43
2023/08/08 00:57:45;;;;;;;0.80;0.80;;;;;;;17.72;77.22;93332.72;513753;28;1102;-43
2023/08/08 00:58:01;;;;;;;0.85;0.85;;;;;;;17.70;77.22;93324.22;511654;29;852;-43
2023/08/08 00:58:16;;;;;;;0.80;0.80;;;;;;;17.72;77.42;93329.19;509622;29;899;-43
2023/08/08 00:58:32;;;;;;;0.80;0.80;;;;;;;17.73;77.80;93327.88;509618;29;841;-44
2023/08/08 00:58:50;;;;;;;0.70;0.70;;;;;;;17.71;77.86;93333.34;509809;29;836;-43
2023/08/08 00:59:07;;;;;;;0.80;0.73;;;;;;;17.69;77.93;93333.22;507601;29;1152;-43
2023/08/08 00:59:23;;;;;;;0.85;0.85;;;;;;;17.70;77.89;93335.38;505741;29;1164;-43
2023/08/08 00:59:38;;;;;;;0.80;0.75;;;;;;;17.69;77.77;93333.22;506763;29;806;-43
2023/08/08 00:59:54;;;;;;;1.30;0.77;;;;;;;17.69;77.76;93330.41;508573;29;872;-43
2023/08/08 01:00:10;;;;;;;1.23;0.80;;;;;;;17.70;77.63;93331.88;510632;29;926;-43
2023/08/08 01:00:25;;;;;;;0.73;0.73;;;;;;;17.70;77.76;93326.28;511712;28;829;-43
2023/08/08 01:00:41;;;;;;;0.75;0.75;;;;;;;17.69;77.61;93333.94;511276;28;1652;-44
2023/08/08 01:00:59;;;;;;;0.70;0.63;;;;;;;17.69;77.66;93333.22;512795;28;837;-43
2023/08/08 01:01:15;;;;;;;0.60;0.60;;;;;;;17.70;77.55;93340.97;513610;28;939;-43
2023/08/08 01:01:30;;;;;;;0.80;0.80;;;;;;;17.69;77.78;93333.94;513872;28;801;-43
2023/08/08 01:01:45;;;;;;;0.83;0.77;;;;;;;17.69;77.46;93327.63;513731;28;893;-43
2023/08/08 01:02:01;;;;;;;0.90;0.77;;;;;;;17.69;77.00;93331.16;513804;28;904;-43
2023/08/08 01:02:16;;;;;;;0.93;0.83;;;;;;;17.68;76.36;93334.53;513688;28;1079;-43
2023/08/08 01:02:32;;;;;;;0.70;0.70;;;;;;;17.69;76.30;93336.00;513799;28;856;-43
2023/08/08 01:02:47;;;;;;;0.70;0.70;;;;;;;17.69;76.54;93338.78;513790;28;914;-43
2023/08/08 01:03:02;;;;;;;0.77;0.73;;;;;;;17.69;76.53;93338.78;513811;28;882;-44
2023/08/08 01:03:18;;;;;;;0.80;0.80;;;;;;;17.68;76.69;93342.91;513117;28;1648;-43
2023/08/08 01:03:33;;;;;;;0.77;0.77;;;;;;;17.68;76.71;93343.63;512752;28;834;-44
2023/08/08 01:03:49;;;;;;;0.70;0.70;;;;;;;17.63;76.99;93338.41;513809;28;1135;-43
2023/08/08 01:04:06;;;;;;;0.93;0.70;;;;;;;17.68;77.00;93349.22;515690;28;787;-43
2023/08/08 01:04:24;;;;;;;0.70;0.70;;;;;;;17.68;77.03;93348.47;512632;28;959;-44
2023/08/08 01:04:40;;;;;;;0.60;0.60;;;;;;;17.66;76.97;93339.97;515052;28;842;-43
2023/08/08 01:04:55;;;;;;;0.63;0.63;;;;;;;17.70;77.22;93354.19;515641;28;1101;-43
2023/08/08 01:05:11;;;;;;;0.70;0.70;;;;;;;17.69;77.20;93353.50;513350;28;1419;-43
2023/08/08 01:05:33;;;;;;;0.70;0.70;;;;;;;17.70;77.22;93357.00;509646;29;1923;-43
2023/08/08 01:06:21;;;;;;;0.70;0.70;;;;;;;17.70;76.99;93354.19;509681;29;1277;-43
2023/08/08 01:07:12;;;;;;;1.17;0.70;;;;;;;17.71;77.04;93361.25;505287;29;1172;-43
2023/08/08 01:07:36;;;;;;;0.68;0.68;;;;;;;17.71;77.31;93359.22;505511;29;1267;-43
2023/08/08 01:07:57;;;;;;;0.75;0.75;;;;;;;17.72;77.42;93360.66;505633;29;897;-44
2023/08/08 01:08:15;;;;;;;0.85;0.80;;;;;;;17.71;77.15;93352.88;511583;28;1103;-44
2023/08/08 01:08:40;;;;;;;0.65;0.65;;;;;;;17.72;77.27;93363.44;513667;28;903;-44
2023/08/08 01:09:00;;;;;;;0.63;0.63;;;;;;;17.72;77.52;93360.66;513768;28;828;-43
2023/08/08 01:09:27;;;;;;;0.80;0.80;;;;;;;17.73;77.79;93361.41;513725;28;995;-44
2023/08/08 01:09:50;;;;;;;0.95;0.90;;;;;;;17.72;77.52;93360.66;513399;28;1119;-44
2023/08/08 01:10:34;;;;;;;0.77;0.70;;;;;;;17.72;77.31;93360.66;513554;28;1079;-45
2023/08/08 01:10:49;;;;;;;0.80;0.80;;;;;;;17.71;77.39;93359.22;511533;28;1635;-44
2023/08/08 01:11:05;;;;;;;0.70;0.70;;;;;;;17.72;77.81;93362.72;513648;28;871;-44
2023/08/08 01:11:20;;;;;;;0.73;0.70;;;;;;;17.71;77.93;93361.25;511620;29;1092;-45
2023/08/08 01:11:36;;;;;;;0.60;0.60;;;;;;;17.71;77.80;93361.25;510546;29;1074;-44
2023/08/08 01:11:52;;;;;;;0.70;0.70;;;;;;;17.65;77.89;93353.19;511674;29;864;-44
2023/08/08 01:12:08;;;;;;;0.85;0.85;;;;;;;17.70;77.75;93363.31;511610;29;1215;-44
2023/08/08 01:12:25;;;;;;;0.80;0.80;;;;;;;17.70;77.76;93362.56;508171;29;1316;-45
2023/08/08 01:12:46;;;;;;;0.93;0.70;;;;;;;17.69;78.12;93364.66;507699;29;1304;-44
2023/08/08 01:13:08;;;;;;;0.98;0.85;;;;;;;17.67;79.12;93367.28;507718;29;1072;-44
2023/08/08 01:13:25;;;;;;;0.75;0.75;;;;;;;17.66;79.09;93365.84;509418;28;1736;-44
2023/08/08 01:13:41;;;;;;;0.70;0.70;;;;;;;17.60;79.28;93365.44;511634;29;885;-43
2023/08/08 01:13:56;;;;;;;0.77;0.77;;;;;;;17.64;79.12;93365.72;511195;29;2869;-44
2023/08/08 01:14:12;;;;;;;0.80;0.70;;;;;;;17.64;79.22;93360.13;507672;29;887;-44
2023/08/08 01:14:29;;;;;;;0.85;0.80;;;;;;;17.64;79.08;93364.97;507901;29;829;-43
2023/08/08 01:14:45;;;;;;;1.02;0.93;;;;;;;17.64;78.85;93368.50;505774;29;796;-44
2023/08/08 01:15:00;;;;;;;1.00;0.90;;;;;;;17.63;78.68;93371.91;505871;29;905;-44
2023/08/08 01:15:17;;;;;;;1.27;0.90;;;;;;;17.63;78.54;93369.09;505820;29;873;-43
2023/08/08 01:15:35;;;;;;;1.20;0.80;;;;;;;17.62;78.51;93364.84;506199;29;1180;-43
2023/08/08 01:15:52;;;;;;;0.75;0.75;;;;;;;17.61;77.87;93363.38;508835;29;916;-44
2023/08/08 01:16:08;;;;;;;0.98;0.80;;;;;;;17.53;77.54;93351.66;510792;29;1163;-43
2023/08/08 01:16:24;;;;;;;0.82;0.80;;;;;;;17.57;77.46;93358.25;509720;29;889;-43
2023/08/08 01:16:39;;;;;;;0.80;0.80;;;;;;;17.59;77.40;93357.66;507716;29;1775;-44
2023/08/08 01:16:57;;;;;;;0.70;0.70;;;;;;;17.56;77.28;93359.59;506495;29;1116;-44
2023/08/08 01:17:13;;;;;;;0.70;0.70;;;;;;;17.56;77.31;93362.38;507741;29;822;-44
2023/08/08 01:17:29;;;;;;;0.98;0.80;;;;;;;17.55;77.96;93363.72;505776;29;806;-44
2023/08/08 01:17:45;;;;;;;1.37;0.90;;;;;;;17.52;78.44;93356.50;507026;29;842;-43
2023/08/08 01:18:04;;;;;;;1.00;0.82;;;;;;;17.55;78.80;93363.72;507808;29;841;-44
2023/08/08 01:18:19;;;;;;;1.08;0.85;;;;;;;17.55;79.07;93360.19;507668;29;1903;-43
2023/08/08 01:18:36;;;;;;;1.63;1.00;;;;;;;17.54;79.22;93362.25;507801;29;1634;-44
2023/08/08 01:18:52;;;;;;;1.30;0.80;;;;;;;17.54;79.22;93362.25;509626;29;835;-44